sensor_id;sensor_type;location;lat;lon;timestamp;P1;durP1;ratioP1;P2;durP2;ratioP2
32505;SDS011;18955;51.224;8.482;2023-11-21T00:00:38;3.03;;;1.73;;
32505;SDS011;18955;51.224;8.482;2023-11-21T00:03:04;4.25;;;2.03;;
32505;SDS011;18955;51.224;8.482;2023-11-21T00:05:32;6.07;;;1.60;;
32505;SDS011;18955;51.224;8.482;2023-11-21T00:07:58;4.50;;;1.73;;
32505;SDS011;18955;51.224;8.482;2023-11-21T00:10:24;6.15;;;2.08;;
32505;SDS011;18955;51.224;8.482;2023-11-21T00:12:51;7.18;;;2.30;;
32505;SDS011;18955;51.224;8.482;2023-11-21T00:15:17;7.22;;;2.65;;
32505;SDS011;18955;51.224;8.482;2023-11-21T00:17:44;10.13;;;3.40;;
32505;SDS011;18955;51.224;8.482;2023-11-21T00:20:10;12.75;;;3.92;;
32505;SDS011;18955;51.224;8.482;2023-11-21T00:22:38;11.50;;;3.47;;
32505;SDS011;18955;51.224;8.482;2023-11-21T00:25:06;10.10;;;3.42;;
32505;SDS011;18955;51.224;8.482;2023-11-21T00:27:35;10.45;;;3.47;;
32505;SDS011;18955;51.224;8.482;2023-11-21T00:30:01;8.88;;;3.30;;
32505;SDS011;18955;51.224;8.482;2023-11-21T00:32:30;8.50;;;3.15;;
32505;SDS011;18955;51.224;8.482;2023-11-21T00:34:57;7.70;;;3.90;;
32505;SDS011;18955;51.224;8.482;2023-11-21T00:37:25;9.95;;;4.03;;
32505;SDS011;18955;51.224;8.482;2023-11-21T00:39:51;9.15;;;4.10;;
32505;SDS011;18955;51.224;8.482;2023-11-21T00:42:17;9.57;;;4.00;;
32505;SDS011;18955;51.224;8.482;2023-11-21T00:44:44;8.30;;;3.33;;
32505;SDS011;18955;51.224;8.482;2023-11-21T00:47:11;9.85;;;3.60;;
32505;SDS011;18955;51.224;8.482;2023-11-21T00:49:39;5.53;;;3.30;;
32505;SDS011;18955;51.224;8.482;2023-11-21T00:52:06;6.15;;;3.53;;
32505;SDS011;18955;51.224;8.482;2023-11-21T00:56:59;10.20;;;3.70;;
32505;SDS011;18955;51.224;8.482;2023-11-21T00:59:25;7.00;;;3.05;;
32505;SDS011;18955;51.224;8.482;2023-11-21T01:01:51;8.75;;;3.50;;
32505;SDS011;18955;51.224;8.482;2023-11-21T01:04:19;7.13;;;3.30;;
32505;SDS011;18955;51.224;8.482;2023-11-21T01:06:45;18.52;;;3.92;;
32505;SDS011;18955;51.224;8.482;2023-11-21T01:09:11;8.13;;;3.33;;
32505;SDS011;18955;51.224;8.482;2023-11-21T01:11:38;11.85;;;3.40;;
32505;SDS011;18955;51.224;8.482;2023-11-21T01:14:04;9.60;;;3.22;;
32505;SDS011;18955;51.224;8.482;2023-11-21T01:16:32;6.20;;;3.10;;
32505;SDS011;18955;51.224;8.482;2023-11-21T01:18:58;7.18;;;3.20;;
32505;SDS011;18955;51.224;8.482;2023-11-21T01:21:25;9.88;;;3.50;;
32505;SDS011;18955;51.224;8.482;2023-11-21T01:23:51;11.43;;;3.15;;
32505;SDS011;18955;51.224;8.482;2023-11-21T01:26:17;8.80;;;3.20;;
32505;SDS011;18955;51.224;8.482;2023-11-21T01:28:44;6.90;;;2.35;;
32505;SDS011;18955;51.224;8.482;2023-11-21T01:31:10;8.68;;;2.28;;
32505;SDS011;18955;51.224;8.482;2023-11-21T01:33:36;6.90;;;2.63;;
32505;SDS011;18955;51.224;8.482;2023-11-21T01:36:02;7.05;;;2.97;;
32505;SDS011;18955;51.224;8.482;2023-11-21T01:38:29;6.65;;;2.72;;
32505;SDS011;18955;51.224;8.482;2023-11-21T01:40:55;7.28;;;2.85;;
32505;SDS011;18955;51.224;8.482;2023-11-21T01:43:21;3.33;;;1.95;;
32505;SDS011;18955;51.224;8.482;2023-11-21T01:45:47;4.07;;;2.17;;
32505;SDS011;18955;51.224;8.482;2023-11-21T01:48:14;7.10;;;3.33;;
32505;SDS011;18955;51.224;8.482;2023-11-21T01:50:42;9.88;;;3.20;;
32505;SDS011;18955;51.224;8.482;2023-11-21T01:53:10;7.55;;;3.17;;
32505;SDS011;18955;51.224;8.482;2023-11-21T01:55:38;14.98;;;3.60;;
32505;SDS011;18955;51.224;8.482;2023-11-21T01:58:07;9.23;;;3.63;;
32505;SDS011;18955;51.224;8.482;2023-11-21T02:00:35;7.72;;;3.25;;
32505;SDS011;18955;51.224;8.482;2023-11-21T02:03:04;8.82;;;3.65;;
32505;SDS011;18955;51.224;8.482;2023-11-21T02:05:30;13.80;;;5.82;;
32505;SDS011;18955;51.224;8.482;2023-11-21T02:07:58;11.95;;;5.13;;
32505;SDS011;18955;51.224;8.482;2023-11-21T02:10:24;13.48;;;5.10;;
32505;SDS011;18955;51.224;8.482;2023-11-21T02:15:17;15.52;;;5.53;;
32505;SDS011;18955;51.224;8.482;2023-11-21T02:17:48;9.18;;;5.85;;
32505;SDS011;18955;51.224;8.482;2023-11-21T02:20:20;15.30;;;6.55;;
32505;SDS011;18955;51.224;8.482;2023-11-21T02:22:55;18.63;;;7.30;;
32505;SDS011;18955;51.224;8.482;2023-11-21T02:28:04;11.70;;;6.38;;
32505;SDS011;18955;51.224;8.482;2023-11-21T02:30:32;10.27;;;4.57;;
32505;SDS011;18955;51.224;8.482;2023-11-21T02:32:58;13.77;;;5.95;;
32505;SDS011;18955;51.224;8.482;2023-11-21T02:37:51;10.18;;;5.85;;
32505;SDS011;18955;51.224;8.482;2023-11-21T02:40:18;12.63;;;6.15;;
32505;SDS011;18955;51.224;8.482;2023-11-21T02:42:46;14.48;;;5.80;;
32505;SDS011;18955;51.224;8.482;2023-11-21T02:45:13;12.52;;;5.93;;
32505;SDS011;18955;51.224;8.482;2023-11-21T02:47:42;12.32;;;6.35;;
32505;SDS011;18955;51.224;8.482;2023-11-21T02:50:09;13.68;;;5.60;;
32505;SDS011;18955;51.224;8.482;2023-11-21T02:52:35;16.55;;;6.70;;
32505;SDS011;18955;51.224;8.482;2023-11-21T02:55:02;12.43;;;6.63;;
32505;SDS011;18955;51.224;8.482;2023-11-21T02:59:55;12.23;;;5.90;;
32505;SDS011;18955;51.224;8.482;2023-11-21T03:02:21;16.65;;;6.53;;
32505;SDS011;18955;51.224;8.482;2023-11-21T03:07:15;8.35;;;5.47;;
32505;SDS011;18955;51.224;8.482;2023-11-21T03:09:41;12.18;;;5.53;;
32505;SDS011;18955;51.224;8.482;2023-11-21T03:12:08;16.92;;;6.78;;
32505;SDS011;18955;51.224;8.482;2023-11-21T03:14:35;13.85;;;5.82;;
32505;SDS011;18955;51.224;8.482;2023-11-21T03:17:01;15.07;;;7.03;;
32505;SDS011;18955;51.224;8.482;2023-11-21T03:19:30;25.80;;;8.27;;
32505;SDS011;18955;51.224;8.482;2023-11-21T03:21:57;15.52;;;8.57;;
32505;SDS011;18955;51.224;8.482;2023-11-21T03:24:23;14.70;;;8.68;;
32505;SDS011;18955;51.224;8.482;2023-11-21T03:26:50;26.70;;;8.93;;
32505;SDS011;18955;51.224;8.482;2023-11-21T03:29:17;16.08;;;8.93;;
32505;SDS011;18955;51.224;8.482;2023-11-21T03:31:43;18.40;;;8.75;;
32505;SDS011;18955;51.224;8.482;2023-11-21T03:34:14;18.48;;;8.70;;
32505;SDS011;18955;51.224;8.482;2023-11-21T03:36:42;21.50;;;8.10;;
32505;SDS011;18955;51.224;8.482;2023-11-21T03:39:09;16.65;;;8.05;;
32505;SDS011;18955;51.224;8.482;2023-11-21T03:41:35;21.77;;;8.65;;
32505;SDS011;18955;51.224;8.482;2023-11-21T03:44:01;13.52;;;6.80;;
32505;SDS011;18955;51.224;8.482;2023-11-21T03:46:28;15.57;;;8.13;;
32505;SDS011;18955;51.224;8.482;2023-11-21T03:48:54;14.40;;;6.82;;
32505;SDS011;18955;51.224;8.482;2023-11-21T03:51:21;16.25;;;8.43;;
32505;SDS011;18955;51.224;8.482;2023-11-21T03:53:47;10.48;;;5.32;;
32505;SDS011;18955;51.224;8.482;2023-11-21T03:56:13;16.42;;;7.60;;
32505;SDS011;18955;51.224;8.482;2023-11-21T03:58:40;15.80;;;7.18;;
32505;SDS011;18955;51.224;8.482;2023-11-21T04:01:06;13.32;;;7.38;;
32505;SDS011;18955;51.224;8.482;2023-11-21T04:03:32;16.27;;;7.15;;
32505;SDS011;18955;51.224;8.482;2023-11-21T04:05:58;7.30;;;5.40;;
32505;SDS011;18955;51.224;8.482;2023-11-21T04:08:26;13.45;;;6.95;;
32505;SDS011;18955;51.224;8.482;2023-11-21T04:10:52;7.97;;;4.80;;
32505;SDS011;18955;51.224;8.482;2023-11-21T04:13:19;18.35;;;7.50;;
32505;SDS011;18955;51.224;8.482;2023-11-21T04:15:45;12.35;;;6.47;;
32505;SDS011;18955;51.224;8.482;2023-11-21T04:18:11;11.40;;;6.32;;
32505;SDS011;18955;51.224;8.482;2023-11-21T04:20:37;11.80;;;7.00;;
32505;SDS011;18955;51.224;8.482;2023-11-21T04:23:03;7.75;;;4.75;;
32505;SDS011;18955;51.224;8.482;2023-11-21T04:25:30;10.05;;;7.22;;
32505;SDS011;18955;51.224;8.482;2023-11-21T04:27:56;14.68;;;7.05;;
32505;SDS011;18955;51.224;8.482;2023-11-21T04:30:22;15.00;;;6.90;;
32505;SDS011;18955;51.224;8.482;2023-11-21T04:32:48;11.75;;;7.43;;
32505;SDS011;18955;51.224;8.482;2023-11-21T04:35:16;9.30;;;6.55;;
32505;SDS011;18955;51.224;8.482;2023-11-21T04:37:42;11.77;;;6.50;;
32505;SDS011;18955;51.224;8.482;2023-11-21T04:40:09;10.13;;;7.00;;
32505;SDS011;18955;51.224;8.482;2023-11-21T04:45:03;10.00;;;7.32;;
32505;SDS011;18955;51.224;8.482;2023-11-21T04:47:34;15.18;;;8.35;;
32505;SDS011;18955;51.224;8.482;2023-11-21T04:50:02;13.05;;;7.97;;
32505;SDS011;18955;51.224;8.482;2023-11-21T04:52:31;15.45;;;8.38;;
32505;SDS011;18955;51.224;8.482;2023-11-21T04:54:58;15.65;;;9.38;;
32505;SDS011;18955;51.224;8.482;2023-11-21T04:57:26;13.95;;;10.10;;
32505;SDS011;18955;51.224;8.482;2023-11-21T04:59:54;16.58;;;10.98;;
32505;SDS011;18955;51.224;8.482;2023-11-21T05:02:20;16.42;;;10.48;;
32505;SDS011;18955;51.224;8.482;2023-11-21T05:04:47;17.70;;;10.10;;
32505;SDS011;18955;51.224;8.482;2023-11-21T05:07:13;17.88;;;10.90;;
32505;SDS011;18955;51.224;8.482;2023-11-21T05:09:44;18.95;;;10.13;;
32505;SDS011;18955;51.224;8.482;2023-11-21T05:12:12;18.90;;;10.00;;
32505;SDS011;18955;51.224;8.482;2023-11-21T05:14:38;16.05;;;9.70;;
32505;SDS011;18955;51.224;8.482;2023-11-21T05:17:04;11.07;;;7.43;;
32505;SDS011;18955;51.224;8.482;2023-11-21T05:19:31;15.75;;;10.35;;
32505;SDS011;18955;51.224;8.482;2023-11-21T05:21:58;19.50;;;11.05;;
32505;SDS011;18955;51.224;8.482;2023-11-21T05:24:26;19.00;;;10.95;;
32505;SDS011;18955;51.224;8.482;2023-11-21T05:26:52;17.05;;;10.45;;
32505;SDS011;18955;51.224;8.482;2023-11-21T05:29:18;18.40;;;10.90;;
32505;SDS011;18955;51.224;8.482;2023-11-21T05:31:44;28.95;;;12.00;;
32505;SDS011;18955;51.224;8.482;2023-11-21T05:34:11;19.85;;;8.13;;
32505;SDS011;18955;51.224;8.482;2023-11-21T05:36:37;21.77;;;12.15;;
32505;SDS011;18955;51.224;8.482;2023-11-21T05:39:03;24.58;;;12.07;;
32505;SDS011;18955;51.224;8.482;2023-11-21T05:41:30;24.67;;;12.60;;
32505;SDS011;18955;51.224;8.482;2023-11-21T05:43:56;29.92;;;12.18;;
32505;SDS011;18955;51.224;8.482;2023-11-21T05:46:22;26.25;;;12.20;;
32505;SDS011;18955;51.224;8.482;2023-11-21T05:48:48;32.47;;;13.40;;
32505;SDS011;18955;51.224;8.482;2023-11-21T05:51:14;24.52;;;12.45;;
32505;SDS011;18955;51.224;8.482;2023-11-21T05:53:41;19.02;;;8.63;;
32505;SDS011;18955;51.224;8.482;2023-11-21T05:56:07;26.90;;;12.45;;
32505;SDS011;18955;51.224;8.482;2023-11-21T05:58:33;22.75;;;11.80;;
32505;SDS011;18955;51.224;8.482;2023-11-21T06:00:59;24.48;;;12.38;;
32505;SDS011;18955;51.224;8.482;2023-11-21T06:03:26;21.90;;;12.25;;
32505;SDS011;18955;51.224;8.482;2023-11-21T06:05:52;16.13;;;7.80;;
32505;SDS011;18955;51.224;8.482;2023-11-21T06:08:18;12.95;;;7.97;;
32505;SDS011;18955;51.224;8.482;2023-11-21T06:10:44;18.23;;;10.57;;
32505;SDS011;18955;51.224;8.482;2023-11-21T06:13:14;22.77;;;11.98;;
32505;SDS011;18955;51.224;8.482;2023-11-21T06:15:41;24.17;;;12.07;;
32505;SDS011;18955;51.224;8.482;2023-11-21T06:18:07;18.95;;;11.63;;
32505;SDS011;18955;51.224;8.482;2023-11-21T06:20:35;24.05;;;11.77;;
32505;SDS011;18955;51.224;8.482;2023-11-21T06:23:03;21.27;;;10.73;;
32505;SDS011;18955;51.224;8.482;2023-11-21T06:25:29;26.17;;;10.40;;
32505;SDS011;18955;51.224;8.482;2023-11-21T06:27:58;15.95;;;10.23;;
32505;SDS011;18955;51.224;8.482;2023-11-21T06:30:24;22.23;;;10.95;;
32505;SDS011;18955;51.224;8.482;2023-11-21T06:32:51;18.45;;;7.57;;
32505;SDS011;18955;51.224;8.482;2023-11-21T06:35:18;23.00;;;11.05;;
32505;SDS011;18955;51.224;8.482;2023-11-21T06:37:44;22.08;;;9.88;;
32505;SDS011;18955;51.224;8.482;2023-11-21T06:40:14;21.08;;;9.82;;
32505;SDS011;18955;51.224;8.482;2023-11-21T06:42:46;18.42;;;9.98;;
32505;SDS011;18955;51.224;8.482;2023-11-21T06:45:12;22.50;;;10.23;;
32505;SDS011;18955;51.224;8.482;2023-11-21T06:47:39;18.50;;;9.52;;
32505;SDS011;18955;51.224;8.482;2023-11-21T06:50:05;23.27;;;9.88;;
32505;SDS011;18955;51.224;8.482;2023-11-21T06:52:32;20.25;;;10.18;;
32505;SDS011;18955;51.224;8.482;2023-11-21T06:54:59;22.80;;;12.23;;
32505;SDS011;18955;51.224;8.482;2023-11-21T06:57:25;21.52;;;10.93;;
32505;SDS011;18955;51.224;8.482;2023-11-21T06:59:51;18.50;;;10.73;;
32505;SDS011;18955;51.224;8.482;2023-11-21T07:02:17;21.38;;;10.68;;
32505;SDS011;18955;51.224;8.482;2023-11-21T07:04:47;16.10;;;7.35;;
32505;SDS011;18955;51.224;8.482;2023-11-21T07:07:13;21.67;;;10.40;;
32505;SDS011;18955;51.224;8.482;2023-11-21T07:09:39;19.70;;;9.48;;
32505;SDS011;18955;51.224;8.482;2023-11-21T07:12:05;18.30;;;10.77;;
32505;SDS011;18955;51.224;8.482;2023-11-21T07:14:33;23.85;;;10.38;;
32505;SDS011;18955;51.224;8.482;2023-11-21T07:17:00;15.82;;;9.40;;
32505;SDS011;18955;51.224;8.482;2023-11-21T07:19:26;14.07;;;7.65;;
32505;SDS011;18955;51.224;8.482;2023-11-21T07:21:52;20.23;;;10.40;;
32505;SDS011;18955;51.224;8.482;2023-11-21T07:24:19;28.48;;;10.20;;
32505;SDS011;18955;51.224;8.482;2023-11-21T07:26:45;21.45;;;8.05;;
32505;SDS011;18955;51.224;8.482;2023-11-21T07:29:11;21.67;;;8.50;;
32505;SDS011;18955;51.224;8.482;2023-11-21T07:31:39;26.17;;;11.68;;
32505;SDS011;18955;51.224;8.482;2023-11-21T07:34:06;23.80;;;11.63;;
32505;SDS011;18955;51.224;8.482;2023-11-21T07:36:33;24.15;;;11.35;;
32505;SDS011;18955;51.224;8.482;2023-11-21T07:39:00;27.38;;;11.60;;
32505;SDS011;18955;51.224;8.482;2023-11-21T07:41:27;23.60;;;13.35;;
32505;SDS011;18955;51.224;8.482;2023-11-21T07:43:55;24.55;;;13.98;;
32505;SDS011;18955;51.224;8.482;2023-11-21T07:46:21;25.13;;;12.02;;
32505;SDS011;18955;51.224;8.482;2023-11-21T07:48:48;22.05;;;10.85;;
32505;SDS011;18955;51.224;8.482;2023-11-21T07:51:14;12.48;;;7.32;;
32505;SDS011;18955;51.224;8.482;2023-11-21T07:53:40;22.75;;;10.10;;
32505;SDS011;18955;51.224;8.482;2023-11-21T07:56:07;11.50;;;6.20;;
32505;SDS011;18955;51.224;8.482;2023-11-21T07:58:37;33.30;;;10.55;;
32505;SDS011;18955;51.224;8.482;2023-11-21T08:01:03;19.83;;;8.38;;
32505;SDS011;18955;51.224;8.482;2023-11-21T08:03:30;22.70;;;9.93;;
32505;SDS011;18955;51.224;8.482;2023-11-21T08:08:23;18.02;;;9.40;;
32505;SDS011;18955;51.224;8.482;2023-11-21T08:10:50;16.02;;;9.77;;
32505;SDS011;18955;51.224;8.482;2023-11-21T08:13:25;16.85;;;9.38;;
32505;SDS011;18955;51.224;8.482;2023-11-21T08:15:56;20.42;;;10.40;;
32505;SDS011;18955;51.224;8.482;2023-11-21T08:18:27;18.00;;;9.88;;
32505;SDS011;18955;51.224;8.482;2023-11-21T08:20:54;19.42;;;9.73;;
32505;SDS011;18955;51.224;8.482;2023-11-21T08:23:21;14.02;;;8.27;;
32505;SDS011;18955;51.224;8.482;2023-11-21T08:25:51;17.65;;;8.23;;
32505;SDS011;18955;51.224;8.482;2023-11-21T08:28:18;17.80;;;8.70;;
32505;SDS011;18955;51.224;8.482;2023-11-21T08:30:45;18.63;;;9.88;;
32505;SDS011;18955;51.224;8.482;2023-11-21T08:33:11;18.65;;;9.93;;
32505;SDS011;18955;51.224;8.482;2023-11-21T08:35:37;15.40;;;8.32;;
32505;SDS011;18955;51.224;8.482;2023-11-21T08:38:03;17.60;;;9.55;;
32505;SDS011;18955;51.224;8.482;2023-11-21T08:40:30;22.52;;;9.60;;
32505;SDS011;18955;51.224;8.482;2023-11-21T08:42:56;12.65;;;7.30;;
32505;SDS011;18955;51.224;8.482;2023-11-21T08:45:24;17.42;;;9.82;;
32505;SDS011;18955;51.224;8.482;2023-11-21T08:47:51;17.80;;;9.48;;
32505;SDS011;18955;51.224;8.482;2023-11-21T08:50:18;23.15;;;10.57;;
32505;SDS011;18955;51.224;8.482;2023-11-21T08:52:45;18.98;;;9.63;;
32505;SDS011;18955;51.224;8.482;2023-11-21T08:55:11;21.75;;;9.88;;
32505;SDS011;18955;51.224;8.482;2023-11-21T08:57:38;23.77;;;9.60;;
32505;SDS011;18955;51.224;8.482;2023-11-21T09:00:09;30.02;;;12.88;;
32505;SDS011;18955;51.224;8.482;2023-11-21T09:02:41;23.77;;;10.73;;
32505;SDS011;18955;51.224;8.482;2023-11-21T09:05:10;27.27;;;12.90;;
32505;SDS011;18955;51.224;8.482;2023-11-21T09:07:39;21.55;;;12.40;;
32505;SDS011;18955;51.224;8.482;2023-11-21T09:10:09;26.67;;;12.73;;
32505;SDS011;18955;51.224;8.482;2023-11-21T09:12:36;31.63;;;11.82;;
32505;SDS011;18955;51.224;8.482;2023-11-21T09:15:05;31.15;;;13.63;;
32505;SDS011;18955;51.224;8.482;2023-11-21T09:17:33;28.42;;;13.73;;
32505;SDS011;18955;51.224;8.482;2023-11-21T09:20:02;35.22;;;14.55;;
32505;SDS011;18955;51.224;8.482;2023-11-21T09:22:31;28.42;;;12.90;;
32505;SDS011;18955;51.224;8.482;2023-11-21T09:24:57;25.58;;;12.02;;
32505;SDS011;18955;51.224;8.482;2023-11-21T09:27:24;20.48;;;11.23;;
32505;SDS011;18955;51.224;8.482;2023-11-21T09:29:53;26.75;;;13.43;;
32505;SDS011;18955;51.224;8.482;2023-11-21T09:32:20;24.73;;;13.20;;
32505;SDS011;18955;51.224;8.482;2023-11-21T09:34:48;21.30;;;11.63;;
32505;SDS011;18955;51.224;8.482;2023-11-21T09:37:14;25.25;;;12.13;;
32505;SDS011;18955;51.224;8.482;2023-11-21T09:39:40;25.60;;;12.77;;
32505;SDS011;18955;51.224;8.482;2023-11-21T09:44:44;22.77;;;11.98;;
32505;SDS011;18955;51.224;8.482;2023-11-21T09:47:21;24.90;;;10.75;;
32505;SDS011;18955;51.224;8.482;2023-11-21T09:49:48;23.27;;;10.40;;
32505;SDS011;18955;51.224;8.482;2023-11-21T09:52:19;22.77;;;10.65;;
32505;SDS011;18955;51.224;8.482;2023-11-21T09:54:51;13.93;;;7.57;;
32505;SDS011;18955;51.224;8.482;2023-11-21T09:57:22;22.75;;;11.50;;
32505;SDS011;18955;51.224;8.482;2023-11-21T09:59:54;22.27;;;10.65;;
32505;SDS011;18955;51.224;8.482;2023-11-21T10:02:25;19.85;;;10.30;;
32505;SDS011;18955;51.224;8.482;2023-11-21T10:04:59;13.35;;;8.02;;
32505;SDS011;18955;51.224;8.482;2023-11-21T10:07:25;13.70;;;6.88;;
32505;SDS011;18955;51.224;8.482;2023-11-21T10:12:18;12.48;;;7.10;;
32505;SDS011;18955;51.224;8.482;2023-11-21T10:14:48;10.70;;;6.47;;
32505;SDS011;18955;51.224;8.482;2023-11-21T10:17:18;9.73;;;6.50;;
32505;SDS011;18955;51.224;8.482;2023-11-21T10:19:46;10.63;;;6.57;;
32505;SDS011;18955;51.224;8.482;2023-11-21T10:22:16;15.02;;;7.60;;
32505;SDS011;18955;51.224;8.482;2023-11-21T10:24:43;11.27;;;7.15;;
32505;SDS011;18955;51.224;8.482;2023-11-21T10:27:09;10.27;;;6.45;;
32505;SDS011;18955;51.224;8.482;2023-11-21T10:29:35;15.35;;;7.63;;
32505;SDS011;18955;51.224;8.482;2023-11-21T10:32:02;13.30;;;6.43;;
32505;SDS011;18955;51.224;8.482;2023-11-21T10:34:29;14.40;;;7.85;;
32505;SDS011;18955;51.224;8.482;2023-11-21T10:36:55;10.32;;;6.38;;
32505;SDS011;18955;51.224;8.482;2023-11-21T10:39:24;10.30;;;5.82;;
32505;SDS011;18955;51.224;8.482;2023-11-21T10:41:54;10.05;;;6.32;;
32505;SDS011;18955;51.224;8.482;2023-11-21T10:44:21;9.52;;;6.25;;
32505;SDS011;18955;51.224;8.482;2023-11-21T10:46:49;13.18;;;6.38;;
32505;SDS011;18955;51.224;8.482;2023-11-21T10:49:18;12.80;;;6.18;;
32505;SDS011;18955;51.224;8.482;2023-11-21T10:51:45;9.52;;;5.10;;
32505;SDS011;18955;51.224;8.482;2023-11-21T10:54:11;11.60;;;5.93;;
32505;SDS011;18955;51.224;8.482;2023-11-21T10:56:42;13.02;;;5.60;;
32505;SDS011;18955;51.224;8.482;2023-11-21T10:59:09;13.15;;;5.65;;
32505;SDS011;18955;51.224;8.482;2023-11-21T11:01:42;9.77;;;5.57;;
32505;SDS011;18955;51.224;8.482;2023-11-21T11:04:11;20.60;;;6.50;;
32505;SDS011;18955;51.224;8.482;2023-11-21T11:06:53;17.80;;;7.00;;
32505;SDS011;18955;51.224;8.482;2023-11-21T11:09:23;12.52;;;6.32;;
32505;SDS011;18955;51.224;8.482;2023-11-21T11:14:16;14.20;;;6.23;;
32505;SDS011;18955;51.224;8.482;2023-11-21T11:16:45;12.75;;;7.20;;
32505;SDS011;18955;51.224;8.482;2023-11-21T11:19:11;17.05;;;7.05;;
32505;SDS011;18955;51.224;8.482;2023-11-21T11:27:30;13.43;;;7.50;;
32505;SDS011;18955;51.224;8.482;2023-11-21T11:32:54;14.38;;;6.75;;
32505;SDS011;18955;51.224;8.482;2023-11-21T11:38:22;12.35;;;6.50;;
32505;SDS011;18955;51.224;8.482;2023-11-21T11:40:52;13.18;;;5.93;;
32505;SDS011;18955;51.224;8.482;2023-11-21T11:43:25;10.93;;;5.20;;
32505;SDS011;18955;51.224;8.482;2023-11-21T11:45:55;11.05;;;4.78;;
32505;SDS011;18955;51.224;8.482;2023-11-21T11:48:22;10.10;;;4.60;;
32505;SDS011;18955;51.224;8.482;2023-11-21T11:51:11;7.40;;;4.28;;
32505;SDS011;18955;51.224;8.482;2023-11-21T11:53:35;7.18;;;4.30;;
32505;SDS011;18955;51.224;8.482;2023-11-21T11:58:47;8.32;;;3.70;;
32505;SDS011;18955;51.224;8.482;2023-11-21T12:01:15;7.07;;;3.85;;
32505;SDS011;18955;51.224;8.482;2023-11-21T12:03:44;10.20;;;3.70;;
32505;SDS011;18955;51.224;8.482;2023-11-21T12:06:34;7.22;;;4.10;;
32505;SDS011;18955;51.224;8.482;2023-11-21T12:09:01;6.45;;;3.88;;
32505;SDS011;18955;51.224;8.482;2023-11-21T12:11:31;7.28;;;3.90;;
32505;SDS011;18955;51.224;8.482;2023-11-21T12:13:58;7.38;;;3.83;;
32505;SDS011;18955;51.224;8.482;2023-11-21T12:16:25;5.05;;;3.65;;
32505;SDS011;18955;51.224;8.482;2023-11-21T12:18:54;6.28;;;3.88;;
32505;SDS011;18955;51.224;8.482;2023-11-21T12:21:20;9.32;;;4.47;;
32505;SDS011;18955;51.224;8.482;2023-11-21T12:23:48;8.90;;;4.22;;
32505;SDS011;18955;51.224;8.482;2023-11-21T12:26:14;7.20;;;4.25;;
32505;SDS011;18955;51.224;8.482;2023-11-21T12:28:40;5.65;;;3.10;;
32505;SDS011;18955;51.224;8.482;2023-11-21T12:33:33;5.75;;;3.25;;
32505;SDS011;18955;51.224;8.482;2023-11-21T12:36:00;4.15;;;3.30;;
32505;SDS011;18955;51.224;8.482;2023-11-21T12:38:33;8.15;;;3.40;;
32505;SDS011;18955;51.224;8.482;2023-11-21T12:41:03;6.82;;;4.00;;
32505;SDS011;18955;51.224;8.482;2023-11-21T12:43:30;8.00;;;3.63;;
32505;SDS011;18955;51.224;8.482;2023-11-21T12:48:32;4.47;;;2.83;;
32505;SDS011;18955;51.224;8.482;2023-11-21T12:50:58;3.90;;;2.95;;
32505;SDS011;18955;51.224;8.482;2023-11-21T12:53:26;4.63;;;3.22;;
32505;SDS011;18955;51.224;8.482;2023-11-21T12:55:56;10.07;;;3.22;;
32505;SDS011;18955;51.224;8.482;2023-11-21T12:58:23;9.85;;;3.85;;
32505;SDS011;18955;51.224;8.482;2023-11-21T13:00:51;37.28;;;3.90;;
32505;SDS011;18955;51.224;8.482;2023-11-21T13:03:19;51.42;;;3.90;;
32505;SDS011;18955;51.224;8.482;2023-11-21T13:05:51;85.65;;;6.85;;
32505;SDS011;18955;51.224;8.482;2023-11-21T13:08:21;90.50;;;6.43;;
32505;SDS011;18955;51.224;8.482;2023-11-21T13:10:49;89.40;;;6.50;;
32505;SDS011;18955;51.224;8.482;2023-11-21T13:13:20;384.55;;;13.60;;
32505;SDS011;18955;51.224;8.482;2023-11-21T13:15:47;247.52;;;10.98;;
32505;SDS011;18955;51.224;8.482;2023-11-21T13:18:18;105.88;;;7.15;;
32505;SDS011;18955;51.224;8.482;2023-11-21T13:20:47;273.73;;;11.30;;
32505;SDS011;18955;51.224;8.482;2023-11-21T13:23:13;331.38;;;12.40;;
32505;SDS011;18955;51.224;8.482;2023-11-21T13:25:42;386.17;;;13.07;;
32505;SDS011;18955;51.224;8.482;2023-11-21T13:28:11;474.65;;;16.33;;
32505;SDS011;18955;51.224;8.482;2023-11-21T13:30:38;416.08;;;13.73;;
32505;SDS011;18955;51.224;8.482;2023-11-21T13:33:06;549.72;;;19.85;;
32505;SDS011;18955;51.224;8.482;2023-11-21T13:35:34;376.58;;;14.15;;
32505;SDS011;18955;51.224;8.482;2023-11-21T13:38:09;59.25;;;6.22;;
32505;SDS011;18955;51.224;8.482;2023-11-21T13:40:36;376.10;;;13.43;;
32505;SDS011;18955;51.224;8.482;2023-11-21T13:43:12;182.60;;;10.35;;
32505;SDS011;18955;51.224;8.482;2023-11-21T13:45:43;175.88;;;9.80;;
32505;SDS011;18955;51.224;8.482;2023-11-21T13:48:10;76.03;;;7.53;;
32505;SDS011;18955;51.224;8.482;2023-11-21T13:50:39;95.63;;;9.18;;
32505;SDS011;18955;51.224;8.482;2023-11-21T13:53:14;88.40;;;8.25;;
32505;SDS011;18955;51.224;8.482;2023-11-21T13:58:28;190.52;;;9.30;;
32505;SDS011;18955;51.224;8.482;2023-11-21T14:01:07;21.65;;;6.43;;
32505;SDS011;18955;51.224;8.482;2023-11-21T14:03:50;22.02;;;5.80;;
32505;SDS011;18955;51.224;8.482;2023-11-21T14:06:22;17.05;;;5.95;;
32505;SDS011;18955;51.224;8.482;2023-11-21T14:08:54;9.18;;;5.30;;
32505;SDS011;18955;51.224;8.482;2023-11-21T14:11:22;18.27;;;5.90;;
32505;SDS011;18955;51.224;8.482;2023-11-21T14:13:48;20.35;;;5.97;;
32505;SDS011;18955;51.224;8.482;2023-11-21T14:16:15;116.65;;;7.38;;
32505;SDS011;18955;51.224;8.482;2023-11-21T14:18:43;23.02;;;6.10;;
32505;SDS011;18955;51.224;8.482;2023-11-21T14:21:24;46.30;;;6.28;;
32505;SDS011;18955;51.224;8.482;2023-11-21T14:23:51;12.43;;;5.03;;
32505;SDS011;18955;51.224;8.482;2023-11-21T14:26:17;17.83;;;7.80;;
32505;SDS011;18955;51.224;8.482;2023-11-21T14:28:44;9.30;;;4.70;;
32505;SDS011;18955;51.224;8.482;2023-11-21T14:31:10;5.93;;;4.03;;
32505;SDS011;18955;51.224;8.482;2023-11-21T14:33:39;5.82;;;4.35;;
32505;SDS011;18955;51.224;8.482;2023-11-21T14:36:06;6.65;;;4.20;;
32505;SDS011;18955;51.224;8.482;2023-11-21T14:38:36;6.18;;;4.15;;
32505;SDS011;18955;51.224;8.482;2023-11-21T14:41:05;5.30;;;3.55;;
32505;SDS011;18955;51.224;8.482;2023-11-21T14:43:34;5.53;;;3.42;;
32505;SDS011;18955;51.224;8.482;2023-11-21T14:46:01;3.65;;;2.88;;
32505;SDS011;18955;51.224;8.482;2023-11-21T14:48:29;3.63;;;2.67;;
32505;SDS011;18955;51.224;8.482;2023-11-21T14:51:08;2.88;;;2.38;;
32505;SDS011;18955;51.224;8.482;2023-11-21T14:53:38;3.03;;;2.35;;
32505;SDS011;18955;51.224;8.482;2023-11-21T14:56:30;2.10;;;1.90;;
32505;SDS011;18955;51.224;8.482;2023-11-21T14:58:58;2.20;;;2.00;;
32505;SDS011;18955;51.224;8.482;2023-11-21T15:01:42;5.60;;;2.50;;
32505;SDS011;18955;51.224;8.482;2023-11-21T15:04:21;3.17;;;2.35;;
32505;SDS011;18955;51.224;8.482;2023-11-21T15:07:07;2.72;;;2.00;;
32505;SDS011;18955;51.224;8.482;2023-11-21T15:09:34;2.10;;;1.90;;
32505;SDS011;18955;51.224;8.482;2023-11-21T15:12:05;2.72;;;1.48;;
32505;SDS011;18955;51.224;8.482;2023-11-21T15:14:44;2.65;;;1.83;;
32505;SDS011;18955;51.224;8.482;2023-11-21T15:17:12;3.13;;;1.90;;
32505;SDS011;18955;51.224;8.482;2023-11-21T15:19:49;2.60;;;2.10;;
32505;SDS011;18955;51.224;8.482;2023-11-21T15:22:16;5.32;;;2.35;;
32505;SDS011;18955;51.224;8.482;2023-11-21T15:24:42;2.85;;;2.25;;
32505;SDS011;18955;51.224;8.482;2023-11-21T15:27:12;2.05;;;1.85;;